sensor_id;sensor_type;location;lat;lon;timestamp;pressure;altitude;pressure_sealevel;temperature;humidity
74675;BME280;63200;48.810;12.352;2023-05-16T00:00:06;97055.50;;;9.81;83.95
74675;BME280;63200;48.810;12.352;2023-05-16T00:02:34;97054.19;;;9.79;83.62
74675;BME280;63200;48.810;12.352;2023-05-16T00:05:00;97018.31;;;9.63;83.86
74675;BME280;63200;48.810;12.352;2023-05-16T00:07:25;97017.88;;;9.56;83.85
74675;BME280;63200;48.810;12.352;2023-05-16T00:09:51;97051.31;;;9.70;84.22
74675;BME280;63200;48.810;12.352;2023-05-16T00:12:16;97043.66;;;9.53;84.59
74675;BME280;63200;48.810;12.352;2023-05-16T00:14:42;97037.50;;;9.47;84.25
74675;BME280;63200;48.810;12.352;2023-05-16T00:17:07;97047.94;;;9.59;84.36
74675;BME280;63200;48.810;12.352;2023-05-16T00:19:36;97029.38;;;9.47;84.16
74675;BME280;63200;48.810;12.352;2023-05-16T00:22:03;97040.88;;;9.58;84.44
74675;BME280;63200;48.810;12.352;2023-05-16T00:24:29;97047.63;;;9.61;84.17
74675;BME280;63200;48.810;12.352;2023-05-16T00:26:54;97046.00;;;9.60;84.32
74675;BME280;63200;48.810;12.352;2023-05-16T00:29:20;97006.13;;;9.41;84.51
74675;BME280;63200;48.810;12.352;2023-05-16T00:31:46;97043.50;;;9.69;84.10
74675;BME280;63200;48.810;12.352;2023-05-16T00:34:11;97044.53;;;9.73;84.32
74675;BME280;63200;48.810;12.352;2023-05-16T00:36:36;97048.63;;;9.70;84.29
74675;BME280;63200;48.810;12.352;2023-05-16T00:39:02;97048.31;;;9.72;84.42
74675;BME280;63200;48.810;12.352;2023-05-16T00:41:28;97044.53;;;9.73;84.18
74675;BME280;63200;48.810;12.352;2023-05-16T00:43:53;97043.94;;;9.76;84.38
74675;BME280;63200;48.810;12.352;2023-05-16T00:46:19;97042.84;;;9.77;84.25
74675;BME280;63200;48.810;12.352;2023-05-16T00:48:44;97041.75;;;9.78;84.36
74675;BME280;63200;48.810;12.352;2023-05-16T00:51:10;97044.72;;;9.76;84.16
74675;BME280;63200;48.810;12.352;2023-05-16T00:53:35;97047.44;;;9.76;84.58
74675;BME280;63200;48.810;12.352;2023-05-16T00:56:01;97012.41;;;9.61;84.25
74675;BME280;63200;48.810;12.352;2023-05-16T00:58:29;97046.06;;;9.79;84.33
74675;BME280;63200;48.810;12.352;2023-05-16T01:00:56;97019.94;;;9.64;84.26
74675;BME280;63200;48.810;12.352;2023-05-16T01:03:22;97033.81;;;9.81;84.42
74675;BME280;63200;48.810;12.352;2023-05-16T01:05:48;97002.06;;;9.63;84.37
74675;BME280;63200;48.810;12.352;2023-05-16T01:08:14;97039.53;;;9.80;84.14
74675;BME280;63200;48.810;12.352;2023-05-16T01:11:07;97024.09;;;9.80;84.30
74675;BME280;63200;48.810;12.352;2023-05-16T01:13:47;97031.69;;;9.78;84.42
74675;BME280;63200;48.810;12.352;2023-05-16T01:16:21;97033.31;;;9.79;84.00
74675;BME280;63200;48.810;12.352;2023-05-16T01:18:57;97029.56;;;9.75;84.40
74675;BME280;63200;48.810;12.352;2023-05-16T01:21:49;97024.88;;;9.62;84.09
74675;BME280;63200;48.810;12.352;2023-05-16T01:24:26;97038.06;;;9.69;84.40
74675;BME280;63200;48.810;12.352;2023-05-16T01:26:58;97035.28;;;9.74;84.46
74675;BME280;63200;48.810;12.352;2023-05-16T01:29:24;97013.50;;;9.60;84.02
74675;BME280;63200;48.810;12.352;2023-05-16T01:31:49;97032.41;;;9.65;84.05
74675;BME280;63200;48.810;12.352;2023-05-16T01:34:15;97026.25;;;9.59;84.26
74675;BME280;63200;48.810;12.352;2023-05-16T01:42:23;97028.38;;;9.62;84.49
74675;BME280;63200;48.810;12.352;2023-05-16T01:45:19;97032.47;;;9.60;83.98
74675;BME280;63200;48.810;12.352;2023-05-16T01:47:51;97022.50;;;9.55;83.96
74675;BME280;63200;48.810;12.352;2023-05-16T01:50:20;97027.94;;;9.55;84.16
74675;BME280;63200;48.810;12.352;2023-05-16T01:52:57;96971.31;;;9.29;83.93
74675;BME280;63200;48.810;12.352;2023-05-16T01:58:02;97015.97;;;9.56;84.01
74675;BME280;63200;48.810;12.352;2023-05-16T02:00:28;97017.66;;;9.52;84.25
74675;BME280;63200;48.810;12.352;2023-05-16T02:02:54;97022.81;;;9.48;84.15
74675;BME280;63200;48.810;12.352;2023-05-16T02:05:19;97015.81;;;9.47;84.32
74675;BME280;63200;48.810;12.352;2023-05-16T02:07:45;97024.25;;;9.46;84.16
74675;BME280;63200;48.810;12.352;2023-05-16T02:10:11;97019.38;;;9.43;83.78
74675;BME280;63200;48.810;12.352;2023-05-16T02:12:37;97027.22;;;9.44;84.26
74675;BME280;63200;48.810;12.352;2023-05-16T02:15:03;97030.94;;;9.48;84.36
74675;BME280;63200;48.810;12.352;2023-05-16T02:17:28;97019.03;;;9.49;84.02
74675;BME280;63200;48.810;12.352;2023-05-16T02:19:54;97020.66;;;9.50;84.06
74675;BME280;63200;48.810;12.352;2023-05-16T02:22:19;97026.31;;;9.54;84.21
74675;BME280;63200;48.810;12.352;2023-05-16T02:24:44;97028.47;;;9.52;83.90
74675;BME280;63200;48.810;12.352;2023-05-16T02:27:10;97026.06;;;9.50;84.19
74675;BME280;63200;48.810;12.352;2023-05-16T02:29:35;97027.16;;;9.49;83.72
74675;BME280;63200;48.810;12.352;2023-05-16T02:32:00;97033.75;;;9.43;83.62
74675;BME280;63200;48.810;12.352;2023-05-16T02:34:26;97038.06;;;9.44;83.27
74675;BME280;63200;48.810;12.352;2023-05-16T02:36:51;97030.81;;;9.40;83.24
74675;BME280;63200;48.810;12.352;2023-05-16T02:39:16;97025.72;;;9.33;83.21
74675;BME280;63200;48.810;12.352;2023-05-16T02:41:42;97024.16;;;9.27;83.28
74675;BME280;63200;48.810;12.352;2023-05-16T02:44:07;97030.09;;;9.29;83.77
74675;BME280;63200;48.810;12.352;2023-05-16T02:46:33;97013.38;;;9.22;83.99
74675;BME280;63200;48.810;12.352;2023-05-16T02:48:59;97035.47;;;9.34;83.81
74675;BME280;63200;48.810;12.352;2023-05-16T02:51:26;97038.19;;;9.34;84.27
74675;BME280;63200;48.810;12.352;2023-05-16T02:53:52;97034.59;;;9.39;84.14
74675;BME280;63200;48.810;12.352;2023-05-16T02:56:18;97023.34;;;9.26;84.33
74675;BME280;63200;48.810;12.352;2023-05-16T02:58:46;97034.25;;;9.45;84.41
74675;BME280;63200;48.810;12.352;2023-05-16T03:01:12;97023.47;;;9.40;84.35
74675;BME280;63200;48.810;12.352;2023-05-16T03:03:37;97039.38;;;9.47;84.54
74675;BME280;63200;48.810;12.352;2023-05-16T03:06:03;97043.22;;;9.46;84.27
74675;BME280;63200;48.810;12.352;2023-05-16T03:08:28;97019.53;;;9.27;84.39
74675;BME280;63200;48.810;12.352;2023-05-16T03:10:53;97048.31;;;9.47;84.36
74675;BME280;63200;48.810;12.352;2023-05-16T03:13:19;97048.53;;;9.51;84.79
74675;BME280;63200;48.810;12.352;2023-05-16T03:15:44;97050.16;;;9.52;84.58
74675;BME280;63200;48.810;12.352;2023-05-16T03:18:10;97044.44;;;9.54;84.63
74675;BME280;63200;48.810;12.352;2023-05-16T03:20:36;97049.06;;;9.53;84.44
74675;BME280;63200;48.810;12.352;2023-05-16T03:23:02;97034.88;;;9.37;84.36
74675;BME280;63200;48.810;12.352;2023-05-16T03:25:27;97046.06;;;9.55;84.71
74675;BME280;63200;48.810;12.352;2023-05-16T03:27:53;97052.53;;;9.59;84.76
74675;BME280;63200;48.810;12.352;2023-05-16T03:30:18;97044.63;;;9.62;84.54
74675;BME280;63200;48.810;12.352;2023-05-16T03:32:44;97044.03;;;9.65;84.74
74675;BME280;63200;48.810;12.352;2023-05-16T03:35:11;97050.50;;;9.70;84.87
74675;BME280;63200;48.810;12.352;2023-05-16T03:37:37;97043.69;;;9.72;84.80
74675;BME280;63200;48.810;12.352;2023-05-16T03:40:03;97036.22;;;9.64;84.97
74675;BME280;63200;48.810;12.352;2023-05-16T03:42:31;97043.69;;;9.72;84.87
74675;BME280;63200;48.810;12.352;2023-05-16T03:44:57;97052.19;;;9.65;84.51
74675;BME280;63200;48.810;12.352;2023-05-16T03:47:22;97061.88;;;9.72;84.80
74675;BME280;63200;48.810;12.352;2023-05-16T03:49:48;97051.81;;;9.72;84.40
74675;BME280;63200;48.810;12.352;2023-05-16T03:52:13;97056.22;;;9.68;84.42
74675;BME280;63200;48.810;12.352;2023-05-16T03:54:38;97050.50;;;9.70;84.70
74675;BME280;63200;48.810;12.352;2023-05-16T03:57:04;97046.94;;;9.74;84.48
74675;BME280;63200;48.810;12.352;2023-05-16T03:59:30;97058.22;;;9.81;84.60
74675;BME280;63200;48.810;12.352;2023-05-16T04:01:55;97038.06;;;9.69;84.26
74675;BME280;63200;48.810;12.352;2023-05-16T04:04:20;97050.84;;;9.87;84.41
74675;BME280;63200;48.810;12.352;2023-05-16T04:06:46;97055.69;;;9.90;84.39
74675;BME280;63200;48.810;12.352;2023-05-16T04:09:11;97052.97;;;9.90;84.54
74675;BME280;63200;48.810;12.352;2023-05-16T04:11:36;97047.50;;;9.95;84.51
74675;BME280;63200;48.810;12.352;2023-05-16T04:14:02;97031.06;;;9.87;84.57
74675;BME280;63200;48.810;12.352;2023-05-16T04:16:28;97047.91;;;10.03;84.41
74675;BME280;63200;48.810;12.352;2023-05-16T04:18:53;97032.59;;;9.93;84.23
74675;BME280;63200;48.810;12.352;2023-05-16T04:21:20;97041.78;;;9.97;83.95
74675;BME280;63200;48.810;12.352;2023-05-16T04:23:45;97051.66;;;9.88;84.15
74675;BME280;63200;48.810;12.352;2023-05-16T04:26:11;97052.84;;;9.76;83.66
74675;BME280;63200;48.810;12.352;2023-05-16T04:28:37;97050.22;;;9.71;83.75
74675;BME280;63200;48.810;12.352;2023-05-16T04:31:02;97036.78;;;9.61;83.80
74675;BME280;63200;48.810;12.352;2023-05-16T04:33:27;97048.06;;;9.68;83.91
74675;BME280;63200;48.810;12.352;2023-05-16T04:35:53;97047.72;;;9.75;83.66
74675;BME280;63200;48.810;12.352;2023-05-16T04:38:19;97048.75;;;9.79;83.87
74675;BME280;63200;48.810;12.352;2023-05-16T04:40:44;97051.94;;;9.86;83.41
74675;BME280;63200;48.810;12.352;2023-05-16T04:43:10;97044.47;;;9.97;83.17
74675;BME280;63200;48.810;12.352;2023-05-16T04:45:35;97054.00;;;9.94;83.14
74675;BME280;63200;48.810;12.352;2023-05-16T04:48:00;97057.00;;;9.93;82.94
74675;BME280;63200;48.810;12.352;2023-05-16T04:50:26;97046.75;;;9.90;82.91
74675;BME280;63200;48.810;12.352;2023-05-16T04:52:51;97050.94;;;10.01;83.09
74675;BME280;63200;48.810;12.352;2023-05-16T04:55:17;97046.84;;;10.04;82.92
74675;BME280;63200;48.810;12.352;2023-05-16T04:57:42;97033.34;;;9.98;82.90
74675;BME280;63200;48.810;12.352;2023-05-16T05:00:08;97037.06;;;10.03;83.04
74675;BME280;63200;48.810;12.352;2023-05-16T05:02:36;97046.16;;;10.12;83.30
74675;BME280;63200;48.810;12.352;2023-05-16T05:05:02;97056.47;;;10.15;83.41
74675;BME280;63200;48.810;12.352;2023-05-16T05:07:28;97056.91;;;10.22;83.35
74675;BME280;63200;48.810;12.352;2023-05-16T05:09:53;97023.69;;;10.11;83.23
74675;BME280;63200;48.810;12.352;2023-05-16T05:12:20;97039.16;;;10.30;83.15
74675;BME280;63200;48.810;12.352;2023-05-16T05:14:46;97049.53;;;10.47;82.92
74675;BME280;63200;48.810;12.352;2023-05-16T05:17:11;97028.50;;;10.39;82.72
74675;BME280;63200;48.810;12.352;2023-05-16T05:19:36;97064.19;;;10.65;82.58
74675;BME280;63200;48.810;12.352;2023-05-16T05:22:02;97061.59;;;10.74;82.42
74675;BME280;63200;48.810;12.352;2023-05-16T05:24:27;97052.34;;;10.75;82.14
74675;BME280;63200;48.810;12.352;2023-05-16T05:26:52;97059.41;;;10.76;81.96
74675;BME280;63200;48.810;12.352;2023-05-16T05:29:18;97057.25;;;10.73;81.72
74675;BME280;63200;48.810;12.352;2023-05-16T05:31:43;97056.25;;;10.69;81.30
74675;BME280;63200;48.810;12.352;2023-05-16T05:34:08;97051.97;;;10.81;81.21
74675;BME280;63200;48.810;12.352;2023-05-16T05:36:34;97059.81;;;11.02;81.11
74675;BME280;63200;48.810;12.352;2023-05-16T05:38:59;97052.66;;;11.06;80.87
74675;BME280;63200;48.810;12.352;2023-05-16T05:41:24;97063.00;;;11.04;80.65
74675;BME280;63200;48.810;12.352;2023-05-16T05:43:51;97065.88;;;10.94;80.31
74675;BME280;63200;48.810;12.352;2023-05-16T05:46:16;97065.31;;;10.97;80.39
74675;BME280;63200;48.810;12.352;2023-05-16T05:48:42;97074.72;;;10.86;80.52
74675;BME280;63200;48.810;12.352;2023-05-16T05:51:08;97069.84;;;11.02;80.87
74675;BME280;63200;48.810;12.352;2023-05-16T05:53:33;97049.41;;;10.90;80.27
74675;BME280;63200;48.810;12.352;2023-05-16T05:55:58;97072.16;;;10.94;79.99
74675;BME280;63200;48.810;12.352;2023-05-16T05:58:24;97059.19;;;11.05;79.55
74675;BME280;63200;48.810;12.352;2023-05-16T06:00:49;97042.34;;;10.89;79.56
74675;BME280;63200;48.810;12.352;2023-05-16T06:03:15;97060.75;;;10.92;79.70
74675;BME280;63200;48.810;12.352;2023-05-16T06:05:41;97063.25;;;10.89;79.97
74675;BME280;63200;48.810;12.352;2023-05-16T06:08:06;97064.94;;;11.04;79.84
74675;BME280;63200;48.810;12.352;2023-05-16T06:10:31;97041.97;;;10.96;79.31
74675;BME280;63200;48.810;12.352;2023-05-16T06:12:57;97032.72;;;10.97;79.46
74675;BME280;63200;48.810;12.352;2023-05-16T06:15:22;97044.03;;;11.18;79.50
74675;BME280;63200;48.810;12.352;2023-05-16T06:17:47;97068.19;;;11.33;78.53
74675;BME280;63200;48.810;12.352;2023-05-16T06:20:13;97054.69;;;11.14;78.71
74675;BME280;63200;48.810;12.352;2023-05-16T06:22:38;97072.31;;;11.31;79.30
74675;BME280;63200;48.810;12.352;2023-05-16T06:25:04;97065.09;;;11.40;79.04
74675;BME280;63200;48.810;12.352;2023-05-16T06:27:29;97059.25;;;11.47;79.01
74675;BME280;63200;48.810;12.352;2023-05-16T06:29:55;97053.44;;;11.54;78.92
74675;BME280;63200;48.810;12.352;2023-05-16T06:32:20;97066.22;;;11.81;78.51
74675;BME280;63200;48.810;12.352;2023-05-16T06:34:46;97058.28;;;11.98;78.14
74675;BME280;63200;48.810;12.352;2023-05-16T06:37:11;97048.78;;;12.24;76.96
74675;BME280;63200;48.810;12.352;2023-05-16T06:39:36;97049.66;;;12.70;75.66
74675;BME280;63200;48.810;12.352;2023-05-16T06:42:02;97058.31;;;12.94;75.15
74675;BME280;63200;48.810;12.352;2023-05-16T06:44:27;97055.91;;;13.15;74.67
74675;BME280;63200;48.810;12.352;2023-05-16T06:46:52;97057.50;;;13.16;74.10
74675;BME280;63200;48.810;12.352;2023-05-16T06:49:18;97071.25;;;13.11;73.74
74675;BME280;63200;48.810;12.352;2023-05-16T06:51:43;97064.50;;;13.09;73.86
74675;BME280;63200;48.810;12.352;2023-05-16T06:54:08;97073.66;;;13.13;74.32
74675;BME280;63200;48.810;12.352;2023-05-16T06:56:34;97079.44;;;13.11;73.70
74675;BME280;63200;48.810;12.352;2023-05-16T06:58:59;97081.19;;;13.07;73.22
74675;BME280;63200;48.810;12.352;2023-05-16T07:01:26;97064.41;;;13.23;71.97
74675;BME280;63200;48.810;12.352;2023-05-16T07:03:51;97081.09;;;13.44;70.45
74675;BME280;63200;48.810;12.352;2023-05-16T07:06:16;97077.66;;;13.61;70.89
74675;BME280;63200;48.810;12.352;2023-05-16T07:08:42;97076.25;;;14.30;70.13
74675;BME280;63200;48.810;12.352;2023-05-16T07:11:07;97079.69;;;14.71;68.25
74675;BME280;63200;48.810;12.352;2023-05-16T07:13:32;97072.78;;;14.73;67.87
74675;BME280;63200;48.810;12.352;2023-05-16T07:15:57;97067.47;;;14.94;67.66
74675;BME280;63200;48.810;12.352;2023-05-16T07:18:23;97035.16;;;14.61;66.16
74675;BME280;63200;48.810;12.352;2023-05-16T07:20:48;97051.56;;;14.53;67.29
74675;BME280;63200;48.810;12.352;2023-05-16T07:23:14;97073.59;;;14.82;67.10
74675;BME280;63200;48.810;12.352;2023-05-16T07:25:39;97071.78;;;15.13;67.08
74675;BME280;63200;48.810;12.352;2023-05-16T07:28:04;97075.47;;;15.26;66.72
74675;BME280;63200;48.810;12.352;2023-05-16T07:30:30;97070.56;;;15.96;65.97
74675;BME280;63200;48.810;12.352;2023-05-16T07:32:55;97068.94;;;16.34;64.05
74675;BME280;63200;48.810;12.352;2023-05-16T07:35:20;97061.31;;;16.82;62.49
74675;BME280;63200;48.810;12.352;2023-05-16T07:37:46;97056.78;;;17.65;61.23
74675;BME280;63200;48.810;12.352;2023-05-16T07:40:11;97064.84;;;18.08;59.37
74675;BME280;63200;48.810;12.352;2023-05-16T07:42:37;97063.38;;;17.98;59.59
74675;BME280;63200;48.810;12.352;2023-05-16T07:45:03;97055.66;;;18.16;58.58
74675;BME280;63200;48.810;12.352;2023-05-16T07:47:28;97058.94;;;18.46;58.19
74675;BME280;63200;48.810;12.352;2023-05-16T07:49:54;97037.97;;;18.54;56.85
74675;BME280;63200;48.810;12.352;2023-05-16T07:52:19;97059.69;;;18.72;55.78
74675;BME280;63200;48.810;12.352;2023-05-16T07:54:48;97068.41;;;19.14;57.47
74675;BME280;63200;48.810;12.352;2023-05-16T07:57:16;97076.53;;;19.55;55.42
74675;BME280;63200;48.810;12.352;2023-05-16T07:59:42;97081.81;;;19.16;53.75
74675;BME280;63200;48.810;12.352;2023-05-16T08:02:09;97086.19;;;18.52;55.34
74675;BME280;63200;48.810;12.352;2023-05-16T08:04:35;97088.31;;;17.93;57.13
74675;BME280;63200;48.810;12.352;2023-05-16T08:07:00;97082.84;;;17.59;59.48
74675;BME280;63200;48.810;12.352;2023-05-16T08:09:26;97066.97;;;17.65;59.97
74675;BME280;63200;48.810;12.352;2023-05-16T08:11:51;97070.69;;;18.06;58.62
74675;BME280;63200;48.810;12.352;2023-05-16T08:14:17;97067.00;;;18.27;57.95
74675;BME280;63200;48.810;12.352;2023-05-16T08:16:43;97075.59;;;18.78;54.22
74675;BME280;63200;48.810;12.352;2023-05-16T08:19:08;97051.09;;;19.30;54.57
74675;BME280;63200;48.810;12.352;2023-05-16T08:21:33;97068.63;;;19.70;52.43
74675;BME280;63200;48.810;12.352;2023-05-16T08:23:59;97062.09;;;19.90;51.93
74675;BME280;63200;48.810;12.352;2023-05-16T08:26:24;97070.50;;;19.65;53.76
74675;BME280;63200;48.810;12.352;2023-05-16T08:28:50;97048.19;;;18.54;54.94
74675;BME280;63200;48.810;12.352;2023-05-16T08:31:16;97088.28;;;18.05;57.71
74675;BME280;63200;48.810;12.352;2023-05-16T08:33:41;97075.72;;;17.46;59.31
74675;BME280;63200;48.810;12.352;2023-05-16T08:36:09;97082.03;;;17.13;61.04
74675;BME280;63200;48.810;12.352;2023-05-16T08:38:34;97070.28;;;16.91;60.44
74675;BME280;63200;48.810;12.352;2023-05-16T08:41:00;97076.81;;;16.78;61.76
74675;BME280;63200;48.810;12.352;2023-05-16T08:43:25;97065.88;;;16.57;60.89
74675;BME280;63200;48.810;12.352;2023-05-16T08:45:51;97078.88;;;16.60;61.61
74675;BME280;63200;48.810;12.352;2023-05-16T08:48:20;97074.06;;;16.36;61.56
74675;BME280;63200;48.810;12.352;2023-05-16T08:50:46;97066.22;;;16.55;62.75
74675;BME280;63200;48.810;12.352;2023-05-16T08:53:13;97050.88;;;16.33;62.07
74675;BME280;63200;48.810;12.352;2023-05-16T08:55:43;97072.00;;;16.32;62.73
74675;BME280;63200;48.810;12.352;2023-05-16T08:58:10;97077.91;;;16.13;64.55
74675;BME280;63200;48.810;12.352;2023-05-16T09:00:36;97078.19;;;16.21;65.54
74675;BME280;63200;48.810;12.352;2023-05-16T09:03:02;97089.78;;;16.18;65.61
74675;BME280;63200;48.810;12.352;2023-05-16T09:05:29;97084.91;;;16.02;66.28
74675;BME280;63200;48.810;12.352;2023-05-16T09:07:54;97084.78;;;15.90;65.84
74675;BME280;63200;48.810;12.352;2023-05-16T09:10:20;97085.25;;;15.92;65.73
74675;BME280;63200;48.810;12.352;2023-05-16T09:12:45;97075.06;;;16.01;65.38
74675;BME280;63200;48.810;12.352;2023-05-16T09:15:11;97074.50;;;16.16;65.70
74675;BME280;63200;48.810;12.352;2023-05-16T09:17:39;97069.13;;;16.29;65.18
74675;BME280;63200;48.810;12.352;2023-05-16T09:20:16;97068.41;;;16.62;64.76
74675;BME280;63200;48.810;12.352;2023-05-16T09:22:53;97067.88;;;16.90;64.41
74675;BME280;63200;48.810;12.352;2023-05-16T09:25:20;97063.66;;;17.13;62.50
74675;BME280;63200;48.810;12.352;2023-05-16T09:27:47;97028.53;;;17.07;61.75
74675;BME280;63200;48.810;12.352;2023-05-16T09:30:15;97057.06;;;17.27;61.60
74675;BME280;63200;48.810;12.352;2023-05-16T09:32:45;97062.44;;;17.02;62.30
74675;BME280;63200;48.810;12.352;2023-05-16T09:35:15;97063.25;;;17.03;63.05
74675;BME280;63200;48.810;12.352;2023-05-16T09:37:45;97060.38;;;16.78;62.70
74675;BME280;63200;48.810;12.352;2023-05-16T09:40:11;97070.94;;;16.67;63.97
74675;BME280;63200;48.810;12.352;2023-05-16T09:42:37;97082.16;;;16.74;63.10
74675;BME280;63200;48.810;12.352;2023-05-16T09:45:03;97050.91;;;16.54;64.15
74675;BME280;63200;48.810;12.352;2023-05-16T09:47:28;97064.72;;;16.79;64.51
74675;BME280;63200;48.810;12.352;2023-05-16T09:49:55;97058.91;;;17.02;62.95
74675;BME280;63200;48.810;12.352;2023-05-16T09:52:20;97057.19;;;17.30;63.80
74675;BME280;63200;48.810;12.352;2023-05-16T09:54:46;97058.91;;;17.47;62.76
74675;BME280;63200;48.810;12.352;2023-05-16T09:57:21;97047.50;;;17.58;61.98
74675;BME280;63200;48.810;12.352;2023-05-16T09:59:47;97043.09;;;18.03;59.34
74675;BME280;63200;48.810;12.352;2023-05-16T10:02:14;97026.78;;;18.75;57.81
74675;BME280;63200;48.810;12.352;2023-05-16T10:04:39;97039.50;;;18.80;58.35
74675;BME280;63200;48.810;12.352;2023-05-16T10:07:05;97025.31;;;19.06;59.17
74675;BME280;63200;48.810;12.352;2023-05-16T10:09:34;97031.59;;;19.35;56.70
74675;BME280;63200;48.810;12.352;2023-05-16T10:12:01;97021.47;;;19.55;55.42
74675;BME280;63200;48.810;12.352;2023-05-16T10:14:29;96984.34;;;19.97;53.87
74675;BME280;63200;48.810;12.352;2023-05-16T10:16:57;96995.53;;;20.59;53.77
74675;BME280;63200;48.810;12.352;2023-05-16T10:19:23;97025.34;;;20.54;51.90
74675;BME280;63200;48.810;12.352;2023-05-16T10:21:53;97023.91;;;19.89;54.54
74675;BME280;63200;48.810;12.352;2023-05-16T10:24:25;97019.97;;;20.06;54.84
74675;BME280;63200;48.810;12.352;2023-05-16T10:26:51;97002.28;;;19.91;54.65
74675;BME280;63200;48.810;12.352;2023-05-16T10:29:17;97021.84;;;20.02;52.27
74675;BME280;63200;48.810;12.352;2023-05-16T10:31:43;97020.00;;;19.90;53.14
74675;BME280;63200;48.810;12.352;2023-05-16T10:34:10;97027.09;;;19.91;52.65
74675;BME280;63200;48.810;12.352;2023-05-16T10:36:36;97022.81;;;19.93;53.34
74675;BME280;63200;48.810;12.352;2023-05-16T10:39:03;97023.88;;;20.05;53.33
74675;BME280;63200;48.810;12.352;2023-05-16T10:41:30;96998.47;;;19.95;52.62
74675;BME280;63200;48.810;12.352;2023-05-16T10:43:57;97023.06;;;20.20;54.75
74675;BME280;63200;48.810;12.352;2023-05-16T10:46:23;97023.53;;;20.06;55.58
74675;BME280;63200;48.810;12.352;2023-05-16T10:48:49;97023.63;;;19.94;54.95
74675;BME280;63200;48.810;12.352;2023-05-16T10:51:36;97009.94;;;19.97;54.83
74675;BME280;63200;48.810;12.352;2023-05-16T10:54:08;97024.94;;;20.00;55.46
74675;BME280;63200;48.810;12.352;2023-05-16T10:56:35;97017.22;;;20.06;54.26
74675;BME280;63200;48.810;12.352;2023-05-16T10:59:01;96995.16;;;19.74;53.49
74675;BME280;63200;48.810;12.352;2023-05-16T11:01:28;97008.94;;;19.58;52.99
74675;BME280;63200;48.810;12.352;2023-05-16T11:06:30;97037.28;;;19.42;53.10
74675;BME280;63200;48.810;12.352;2023-05-16T11:20:16;97045.00;;;18.27;52.45
74675;BME280;63200;48.810;12.352;2023-05-16T11:27:29;97043.38;;;16.21;53.03
74675;BME280;63200;48.810;12.352;2023-05-16T11:30:09;97046.34;;;15.77;53.17
74675;BME280;63200;48.810;12.352;2023-05-16T11:32:37;97044.50;;;15.52;53.49
74675;BME280;63200;48.810;12.352;2023-05-16T11:35:04;97038.34;;;15.07;55.10
74675;BME280;63200;48.810;12.352;2023-05-16T11:37:30;97038.69;;;14.62;56.93
74675;BME280;63200;48.810;12.352;2023-05-16T11:40:02;97040.31;;;14.54;55.08
74675;BME280;63200;48.810;12.352;2023-05-16T11:42:34;97058.91;;;14.35;56.64
74675;BME280;63200;48.810;12.352;2023-05-16T11:45:29;97048.28;;;14.24;57.63
74675;BME280;63200;48.810;12.352;2023-05-16T11:48:01;97053.44;;;14.17;58.71
74675;BME280;63200;48.810;12.352;2023-05-16T11:50:27;97052.16;;;14.32;58.14
74675;BME280;63200;48.810;12.352;2023-05-16T11:52:53;97055.03;;;14.09;57.46
74675;BME280;63200;48.810;12.352;2023-05-16T11:55:21;97054.19;;;14.00;57.40
74675;BME280;63200;48.810;12.352;2023-05-16T11:57:48;97041.25;;;13.74;59.02
74675;BME280;63200;48.810;12.352;2023-05-16T12:00:20;97059.63;;;13.82;59.67
74675;BME280;63200;48.810;12.352;2023-05-16T12:02:47;97061.19;;;13.75;59.45
74675;BME280;63200;48.810;12.352;2023-05-16T12:05:13;97073.75;;;13.53;61.72
74675;BME280;63200;48.810;12.352;2023-05-16T12:07:41;97083.28;;;13.10;64.92
74675;BME280;63200;48.810;12.352;2023-05-16T12:10:08;97085.19;;;12.87;66.83
74675;BME280;63200;48.810;12.352;2023-05-16T12:12:35;97043.41;;;12.32;67.39
74675;BME280;63200;48.810;12.352;2023-05-16T12:15:02;97097.91;;;12.55;68.46
74675;BME280;63200;48.810;12.352;2023-05-16T12:17:28;97111.03;;;12.53;68.86
74675;BME280;63200;48.810;12.352;2023-05-16T12:19:54;97110.31;;;12.47;70.10
74675;BME280;63200;48.810;12.352;2023-05-16T12:22:19;97103.41;;;12.41;70.02
74675;BME280;63200;48.810;12.352;2023-05-16T12:24:45;97089.22;;;12.16;70.93
74675;BME280;63200;48.810;12.352;2023-05-16T12:27:10;97091.66;;;12.04;70.94
74675;BME280;63200;48.810;12.352;2023-05-16T12:29:37;97105.84;;;12.01;70.71
74675;BME280;63200;48.810;12.352;2023-05-16T12:32:02;97110.19;;;12.02;71.38
74675;BME280;63200;48.810;12.352;2023-05-16T12:34:29;97085.66;;;11.74;71.03
74675;BME280;63200;48.810;12.352;2023-05-16T12:36:54;97110.09;;;12.07;71.53
74675;BME280;63200;48.810;12.352;2023-05-16T12:39:20;97108.88;;;12.13;71.44
74675;BME280;63200;48.810;12.352;2023-05-16T12:41:47;97112.66;;;12.26;71.55
74675;BME280;63200;48.810;12.352;2023-05-16T12:44:14;97078.94;;;12.13;72.27
74675;BME280;63200;48.810;12.352;2023-05-16T12:46:46;97085.66;;;12.30;72.51
74675;BME280;63200;48.810;12.352;2023-05-16T12:49:13;97067.34;;;12.22;73.70
74675;BME280;63200;48.810;12.352;2023-05-16T12:51:39;97066.34;;;12.18;73.39
74675;BME280;63200;48.810;12.352;2023-05-16T12:54:09;97075.28;;;12.32;73.20
74675;BME280;63200;48.810;12.352;2023-05-16T12:56:36;97091.56;;;12.60;71.82
74675;BME280;63200;48.810;12.352;2023-05-16T12:59:02;97093.53;;;12.68;71.00
74675;BME280;63200;48.810;12.352;2023-05-16T13:01:27;97082.63;;;12.68;69.80
74675;BME280;63200;48.810;12.352;2023-05-16T13:03:53;97097.69;;;12.88;70.22
74675;BME280;63200;48.810;12.352;2023-05-16T13:06:18;97102.66;;;13.09;69.66
74675;BME280;63200;48.810;12.352;2023-05-16T13:08:43;97097.88;;;13.14;70.60
74675;BME280;63200;48.810;12.352;2023-05-16T13:11:09;97105.94;;;13.20;70.76
74675;BME280;63200;48.810;12.352;2023-05-16T13:13:34;97087.06;;;13.23;70.54
74675;BME280;63200;48.810;12.352;2023-05-16T13:16:00;97102.66;;;13.31;69.93